EDHK/KEL METAR and TAF weather

Enter ICAO airport designator
Station Type Date Time Source
EDHK METAR 2020/06/06 15:20 UTC NOAA

EDHK 061520Z 24011KT 220V280 9000 4000N SHRA BKN033TCU 09/08 Q1000


Station Type Date Time Source
EDHK Decoded METAR 2020/06/06 15:20 UTC NOAA

Kiel / Holtenau Civilian, Germany (EDHK) 54-23N 010-10E
Jun 06, 2020 - 11:20 AM EDT / 2020.06.06 1520 UTC
Wind: from the WSW (240 degrees) at 13 MPH (11 KT) (direction variable):0
Visibility: 5 mile(s):0
Sky conditions: mostly cloudy
Weather: rain showers; Towering cumulus clouds observed
Temperature: 48 F (9 C)
Dew Point: 46 F (8 C)
Relative Humidity: 93%
Pressure (altimeter): 29.53 in. Hg (1000 hPa)
ob: EDHK 061520Z 24011KT 220V280 9000 4000N SHRA BKN033TCU 09/08 Q1000
cycle: 15

Station Type Date Time Source
EDHK TAF 2013/08/11 06:39 UTC NOAA

TAF EDHK 110633Z 1106/1118 24005KT 9999 SCT030
BECMG 1106/1109 25010KT
TEMPO 1106/1118 27015G25KT 4500 SHRA BKN012CB

Example: see airport list